sensor_id;sensor_type;location;lat;lon;timestamp;pressure;altitude;pressure_sealevel;temperature;humidity
71424;BME280;59240;51.370;-0.486;2023-04-29T00:00:29;101731.69;;;11.09;87.00
71424;BME280;59240;51.370;-0.486;2023-04-29T00:02:56;101740.38;;;11.08;86.86
71424;BME280;59240;51.370;-0.486;2023-04-29T00:05:22;101730.88;;;11.03;86.42
71424;BME280;59240;51.370;-0.486;2023-04-29T00:07:49;101739.53;;;11.05;86.72
71424;BME280;59240;51.370;-0.486;2023-04-29T00:10:16;101737.00;;;10.99;87.13
71424;BME280;59240;51.370;-0.486;2023-04-29T00:12:42;101738.75;;;10.95;87.09
71424;BME280;59240;51.370;-0.486;2023-04-29T00:15:09;101741.38;;;10.93;86.48
71424;BME280;59240;51.370;-0.486;2023-04-29T00:17:36;101747.50;;;10.89;86.50
71424;BME280;59240;51.370;-0.486;2023-04-29T00:20:03;101744.06;;;10.86;87.17
71424;BME280;59240;51.370;-0.486;2023-04-29T00:22:32;101743.19;;;10.82;87.26
71424;BME280;59240;51.370;-0.486;2023-04-29T00:24:59;101754.53;;;10.78;87.33
71424;BME280;59240;51.370;-0.486;2023-04-29T00:27:26;101757.13;;;10.77;86.83
71424;BME280;59240;51.370;-0.486;2023-04-29T00:29:52;101752.81;;;10.76;86.94
71424;BME280;59240;51.370;-0.486;2023-04-29T00:32:20;101745.91;;;10.68;86.45
71424;BME280;59240;51.370;-0.486;2023-04-29T00:34:47;101758.09;;;10.66;87.29
71424;BME280;59240;51.370;-0.486;2023-04-29T00:37:13;101729.53;;;10.53;86.34
71424;BME280;59240;51.370;-0.486;2023-04-29T00:39:40;101725.22;;;10.43;87.31
71424;BME280;59240;51.370;-0.486;2023-04-29T00:42:08;101758.16;;;10.57;86.88
71424;BME280;59240;51.370;-0.486;2023-04-29T00:44:38;101759.03;;;10.55;87.21
71424;BME280;59240;51.370;-0.486;2023-04-29T00:47:04;101761.69;;;10.50;87.19
71424;BME280;59240;51.370;-0.486;2023-04-29T00:49:31;101755.63;;;10.45;86.59
71424;BME280;59240;51.370;-0.486;2023-04-29T00:51:58;101754.78;;;10.40;86.91
71424;BME280;59240;51.370;-0.486;2023-04-29T00:54:24;101753.94;;;10.36;86.39
71424;BME280;59240;51.370;-0.486;2023-04-29T00:56:51;101750.53;;;10.25;86.95
71424;BME280;59240;51.370;-0.486;2023-04-29T00:59:19;101759.22;;;10.24;87.27
71424;BME280;59240;51.370;-0.486;2023-04-29T01:01:46;101759.22;;;10.23;87.84
71424;BME280;59240;51.370;-0.486;2023-04-29T01:04:13;101767.88;;;10.20;87.58
71424;BME280;59240;51.370;-0.486;2023-04-29T01:12:45;101773.09;;;10.17;91.47
71424;BME280;59240;51.370;-0.486;2023-04-29T01:15:27;101768.75;;;10.13;90.42
71424;BME280;59240;51.370;-0.486;2023-04-29T01:17:58;101765.31;;;10.09;87.27
71424;BME280;59240;51.370;-0.486;2023-04-29T01:20:26;101743.69;;;9.94;87.65
71424;BME280;59240;51.370;-0.486;2023-04-29T01:22:52;101768.84;;;9.96;86.91
71424;BME280;59240;51.370;-0.486;2023-04-29T01:25:19;101768.00;;;9.96;86.53
71424;BME280;59240;51.370;-0.486;2023-04-29T01:30:23;101771.47;;;9.89;87.16
71424;BME280;59240;51.370;-0.486;2023-04-29T01:33:13;101768.00;;;9.80;90.05
71424;BME280;59240;51.370;-0.486;2023-04-29T01:42:44;101776.72;;;9.70;91.30
71424;BME280;59240;51.370;-0.486;2023-04-29T01:45:14;101774.16;;;9.63;89.09
71424;BME280;59240;51.370;-0.486;2023-04-29T01:47:45;101783.69;;;9.59;88.11
71424;BME280;59240;51.370;-0.486;2023-04-29T01:50:12;101762.91;;;9.50;87.61
71424;BME280;59240;51.370;-0.486;2023-04-29T01:52:39;101760.28;;;9.47;87.34
71424;BME280;59240;51.370;-0.486;2023-04-29T01:55:05;101772.44;;;9.51;88.20
71424;BME280;59240;51.370;-0.486;2023-04-29T01:57:32;101770.69;;;9.50;88.28
71424;BME280;59240;51.370;-0.486;2023-04-29T01:59:59;101773.31;;;9.50;87.47
71424;BME280;59240;51.370;-0.486;2023-04-29T02:02:27;101762.91;;;9.41;87.34
71424;BME280;59240;51.370;-0.486;2023-04-29T02:04:54;101768.09;;;9.38;87.43
71424;BME280;59240;51.370;-0.486;2023-04-29T02:07:21;101775.03;;;9.39;88.10
71424;BME280;59240;51.370;-0.486;2023-04-29T02:09:48;101775.06;;;9.42;88.35
71424;BME280;59240;51.370;-0.486;2023-04-29T02:12:14;101782.84;;;9.37;88.04
71424;BME280;59240;51.370;-0.486;2023-04-29T02:14:41;101778.50;;;9.33;87.85
71424;BME280;59240;51.370;-0.486;2023-04-29T02:17:10;101768.13;;;9.24;87.48
71424;BME280;59240;51.370;-0.486;2023-04-29T02:19:36;101776.81;;;9.27;88.12
71424;BME280;59240;51.370;-0.486;2023-04-29T02:22:03;101781.97;;;9.24;87.42
71424;BME280;59240;51.370;-0.486;2023-04-29T02:24:32;101781.97;;;9.24;88.21
71424;BME280;59240;51.370;-0.486;2023-04-29T02:26:58;101790.66;;;9.20;88.34
71424;BME280;59240;51.370;-0.486;2023-04-29T02:29:25;101777.66;;;9.10;88.37
71424;BME280;59240;51.370;-0.486;2023-04-29T02:31:52;101797.59;;;9.15;88.12
71424;BME280;59240;51.370;-0.486;2023-04-29T02:34:19;101794.97;;;9.12;88.44
71424;BME280;59240;51.370;-0.486;2023-04-29T02:36:46;101788.03;;;9.05;89.03
71424;BME280;59240;51.370;-0.486;2023-04-29T02:39:12;101788.06;;;9.03;88.34
71424;BME280;59240;51.370;-0.486;2023-04-29T02:41:39;101777.66;;;8.91;88.70
71424;BME280;59240;51.370;-0.486;2023-04-29T02:44:05;101775.94;;;8.87;88.50
71424;BME280;59240;51.370;-0.486;2023-04-29T02:46:32;101794.97;;;8.95;88.40
71424;BME280;59240;51.370;-0.486;2023-04-29T02:49:01;101797.59;;;8.92;88.35
71424;BME280;59240;51.370;-0.486;2023-04-29T02:51:28;101790.66;;;8.88;88.25
71424;BME280;59240;51.370;-0.486;2023-04-29T02:53:56;101800.16;;;8.91;87.67
71424;BME280;59240;51.370;-0.486;2023-04-29T02:56:22;101800.19;;;8.86;87.17
71424;BME280;59240;51.370;-0.486;2023-04-29T02:58:49;101802.78;;;8.86;87.70
71424;BME280;59240;51.370;-0.486;2023-04-29T03:01:15;101812.28;;;8.83;87.58
71424;BME280;59240;51.370;-0.486;2023-04-29T03:03:42;101814.03;;;8.82;88.70
71424;BME280;59240;51.370;-0.486;2023-04-29T03:06:09;101790.63;;;8.68;88.45
71424;BME280;59240;51.370;-0.486;2023-04-29T03:08:35;101801.88;;;8.76;87.69
71424;BME280;59240;51.370;-0.486;2023-04-29T03:11:01;101797.56;;;8.72;88.22
71424;BME280;59240;51.370;-0.486;2023-04-29T03:13:28;101802.75;;;8.72;87.40
71424;BME280;59240;51.370;-0.486;2023-04-29T03:15:55;101803.59;;;8.70;88.43
71424;BME280;59240;51.370;-0.486;2023-04-29T03:18:23;101782.78;;;8.58;88.48
71424;BME280;59240;51.370;-0.486;2023-04-29T03:20:50;101797.50;;;8.57;87.22
71424;BME280;59240;51.370;-0.486;2023-04-29T03:23:17;101797.50;;;8.54;88.08
71424;BME280;59240;51.370;-0.486;2023-04-29T03:25:43;101809.66;;;8.58;87.59
71424;BME280;59240;51.370;-0.486;2023-04-29T03:28:10;101809.63;;;8.55;88.12
71424;BME280;59240;51.370;-0.486;2023-04-29T03:30:36;101796.63;;;8.47;88.24
71424;BME280;59240;51.370;-0.486;2023-04-29T03:33:03;101801.81;;;8.50;87.39
71424;BME280;59240;51.370;-0.486;2023-04-29T03:35:29;101798.34;;;8.47;87.22
71424;BME280;59240;51.370;-0.486;2023-04-29T03:37:56;101804.41;;;8.46;87.14
71424;BME280;59240;51.370;-0.486;2023-04-29T03:40:22;101809.59;;;8.43;86.97
71424;BME280;59240;51.370;-0.486;2023-04-29T03:42:49;101797.47;;;8.39;87.86
71424;BME280;59240;51.370;-0.486;2023-04-29T03:45:16;101802.59;;;8.33;87.98
71424;BME280;59240;51.370;-0.486;2023-04-29T03:47:43;101806.06;;;8.32;87.11
71424;BME280;59240;51.370;-0.486;2023-04-29T03:50:09;101814.72;;;8.31;87.20
71424;BME280;59240;51.370;-0.486;2023-04-29T03:52:37;101812.97;;;8.30;87.14
71424;BME280;59240;51.370;-0.486;2023-04-29T03:55:04;101806.88;;;8.23;87.83
71424;BME280;59240;51.370;-0.486;2023-04-29T03:57:30;101804.25;;;8.15;87.22
71424;BME280;59240;51.370;-0.486;2023-04-29T03:59:57;101807.72;;;8.14;87.74
71424;BME280;59240;51.370;-0.486;2023-04-29T04:02:23;101806.84;;;8.11;87.96
71424;BME280;59240;51.370;-0.486;2023-04-29T04:04:50;101815.50;;;8.10;87.37
71424;BME280;59240;51.370;-0.486;2023-04-29T04:07:17;101806.81;;;8.03;87.26
71424;BME280;59240;51.370;-0.486;2023-04-29T04:09:44;101826.72;;;8.07;87.72
71424;BME280;59240;51.370;-0.486;2023-04-29T04:12:11;101807.59;;;7.93;87.99
71424;BME280;59240;51.370;-0.486;2023-04-29T04:14:37;101831.00;;;7.99;87.29
71424;BME280;59240;51.370;-0.486;2023-04-29T04:17:04;101827.50;;;7.95;87.93
71424;BME280;59240;51.370;-0.486;2023-04-29T04:19:31;101838.75;;;7.94;88.24
71424;BME280;59240;51.370;-0.486;2023-04-29T04:21:58;101822.22;;;7.77;87.16
71424;BME280;59240;51.370;-0.486;2023-04-29T04:24:24;101835.22;;;7.82;87.23
71424;BME280;59240;51.370;-0.486;2023-04-29T04:26:51;101851.66;;;7.84;87.55
71424;BME280;59240;51.370;-0.486;2023-04-29T04:29:17;101839.47;;;7.75;87.36
71424;BME280;59240;51.370;-0.486;2023-04-29T04:31:44;101855.09;;;7.81;87.82
71424;BME280;59240;51.370;-0.486;2023-04-29T04:34:12;101862.88;;;7.80;87.36
71424;BME280;59240;51.370;-0.486;2023-04-29T04:36:39;101851.59;;;7.75;87.52
71424;BME280;59240;51.370;-0.486;2023-04-29T04:39:05;101857.63;;;7.74;87.67
71424;BME280;59240;51.370;-0.486;2023-04-29T04:41:32;101852.34;;;7.61;87.97
71424;BME280;59240;51.370;-0.486;2023-04-29T04:43:58;101861.88;;;7.61;87.84
71424;BME280;59240;51.370;-0.486;2023-04-29T04:46:25;101869.69;;;7.65;87.78
71424;BME280;59240;51.370;-0.486;2023-04-29T04:48:51;101876.59;;;7.63;87.56
71424;BME280;59240;51.370;-0.486;2023-04-29T04:51:18;101859.22;;;7.53;87.76
71424;BME280;59240;51.370;-0.486;2023-04-29T04:53:44;101880.06;;;7.65;87.90
71424;BME280;59240;51.370;-0.486;2023-04-29T04:56:11;101881.78;;;7.65;87.97
71424;BME280;59240;51.370;-0.486;2023-04-29T04:58:38;101858.34;;;7.48;87.74
71424;BME280;59240;51.370;-0.486;2023-04-29T05:01:04;101882.59;;;7.61;88.16
71424;BME280;59240;51.370;-0.486;2023-04-29T05:03:31;101890.44;;;7.65;87.50
71424;BME280;59240;51.370;-0.486;2023-04-29T05:05:58;101896.50;;;7.67;87.83
71424;BME280;59240;51.370;-0.486;2023-04-29T05:08:26;101893.03;;;7.62;87.93
71424;BME280;59240;51.370;-0.486;2023-04-29T05:10:52;101897.31;;;7.60;88.13
71424;BME280;59240;51.370;-0.486;2023-04-29T05:13:19;101907.72;;;7.66;87.89
71424;BME280;59240;51.370;-0.486;2023-04-29T05:15:46;101904.28;;;7.67;88.27
71424;BME280;59240;51.370;-0.486;2023-04-29T05:18:13;101906.91;;;7.69;88.28
71424;BME280;59240;51.370;-0.486;2023-04-29T05:20:39;101908.59;;;7.68;88.00
71424;BME280;59240;51.370;-0.486;2023-04-29T05:23:06;101923.38;;;7.76;88.29
71424;BME280;59240;51.370;-0.486;2023-04-29T05:25:32;101912.09;;;7.72;88.29
71424;BME280;59240;51.370;-0.486;2023-04-29T05:27:59;101909.50;;;7.72;88.12
71424;BME280;59240;51.370;-0.486;2023-04-29T05:30:26;101927.72;;;7.78;88.36
71424;BME280;59240;51.370;-0.486;2023-04-29T05:32:52;101894.75;;;7.65;88.31
71424;BME280;59240;51.370;-0.486;2023-04-29T05:35:19;101925.16;;;7.83;88.05
71424;BME280;59240;51.370;-0.486;2023-04-29T05:37:45;101913.94;;;7.85;88.56
71424;BME280;59240;51.370;-0.486;2023-04-29T05:40:12;101920.91;;;7.91;88.36
71424;BME280;59240;51.370;-0.486;2023-04-29T05:42:38;101921.81;;;7.96;88.46
71424;BME280;59240;51.370;-0.486;2023-04-29T05:45:05;101917.50;;;8.01;88.72
71424;BME280;59240;51.370;-0.486;2023-04-29T05:47:32;101924.50;;;8.10;89.09
71424;BME280;59240;51.370;-0.486;2023-04-29T05:49:59;101920.19;;;8.13;89.39
71424;BME280;59240;51.370;-0.486;2023-04-29T05:52:26;101918.50;;;8.21;88.75
71424;BME280;59240;51.370;-0.486;2023-04-29T05:54:52;101927.19;;;8.23;89.16
71424;BME280;59240;51.370;-0.486;2023-04-29T05:57:19;101927.28;;;8.39;89.29
71424;BME280;59240;51.370;-0.486;2023-04-29T05:59:45;101908.22;;;8.37;89.59
71424;BME280;59240;51.370;-0.486;2023-04-29T06:02:12;101929.97;;;8.57;89.03
71424;BME280;59240;51.370;-0.486;2023-04-29T06:04:39;101926.53;;;8.64;88.77
71424;BME280;59240;51.370;-0.486;2023-04-29T06:07:07;101934.38;;;8.76;89.69
71424;BME280;59240;51.370;-0.486;2023-04-29T06:09:35;101917.03;;;8.69;89.84
71424;BME280;59240;51.370;-0.486;2023-04-29T06:12:02;101917.09;;;8.82;89.13
71424;BME280;59240;51.370;-0.486;2023-04-29T06:14:29;101934.47;;;8.95;88.91
71424;BME280;59240;51.370;-0.486;2023-04-29T06:16:57;101933.63;;;9.19;90.28
71424;BME280;59240;51.370;-0.486;2023-04-29T06:19:24;101934.56;;;9.38;89.17
71424;BME280;59240;51.370;-0.486;2023-04-29T06:21:51;101938.91;;;9.55;89.04
71424;BME280;59240;51.370;-0.486;2023-04-29T06:24:17;101929.34;;;9.74;89.49
71424;BME280;59240;51.370;-0.486;2023-04-29T06:26:44;101934.59;;;9.96;89.11
71424;BME280;59240;51.370;-0.486;2023-04-29T06:29:11;101923.25;;;10.07;89.44
71424;BME280;59240;51.370;-0.486;2023-04-29T06:31:37;101942.34;;;10.37;88.67
71424;BME280;59240;51.370;-0.486;2023-04-29T06:34:06;101941.41;;;10.58;89.21
71424;BME280;59240;51.370;-0.486;2023-04-29T06:36:33;101932.69;;;10.68;88.47
71424;BME280;59240;51.370;-0.486;2023-04-29T06:38:59;101949.97;;;10.93;88.26
71424;BME280;59240;51.370;-0.486;2023-04-29T06:41:26;101942.06;;;11.07;88.14
71424;BME280;59240;51.370;-0.486;2023-04-29T06:43:53;101951.50;;;11.28;87.60
71424;BME280;59240;51.370;-0.486;2023-04-29T06:46:19;101960.06;;;11.45;87.59
71424;BME280;59240;51.370;-0.486;2023-04-29T06:48:46;101958.25;;;11.57;87.74
71424;BME280;59240;51.370;-0.486;2023-04-29T06:51:12;101973.81;;;11.72;87.48
71424;BME280;59240;51.370;-0.486;2023-04-29T06:53:39;101972.00;;;11.80;87.43
71424;BME280;59240;51.370;-0.486;2023-04-29T06:56:08;101973.66;;;11.96;87.39
71424;BME280;59240;51.370;-0.486;2023-04-29T06:58:34;101977.00;;;12.11;86.49
71424;BME280;59240;51.370;-0.486;2023-04-29T07:01:03;101956.06;;;12.14;86.27
71424;BME280;59240;51.370;-0.486;2023-04-29T07:03:32;101962.84;;;12.33;85.50
71424;BME280;59240;51.370;-0.486;2023-04-29T07:05:59;101977.44;;;12.52;85.97
71424;BME280;59240;51.370;-0.486;2023-04-29T07:08:26;101973.06;;;12.57;84.91
71424;BME280;59240;51.370;-0.486;2023-04-29T07:10:58;101979.75;;;12.80;85.54
71424;BME280;59240;51.370;-0.486;2023-04-29T07:13:28;101967.50;;;12.82;83.72
71424;BME280;59240;51.370;-0.486;2023-04-29T07:15:55;101983.03;;;12.97;84.59
71424;BME280;59240;51.370;-0.486;2023-04-29T07:18:22;101996.75;;;13.14;84.17
71424;BME280;59240;51.370;-0.486;2023-04-29T07:20:48;101994.91;;;13.26;83.94
71424;BME280;59240;51.370;-0.486;2023-04-29T07:23:16;101962.72;;;13.18;82.43
71424;BME280;59240;51.370;-0.486;2023-04-29T07:25:43;101994.69;;;13.38;83.00
71424;BME280;59240;51.370;-0.486;2023-04-29T07:28:09;102003.25;;;13.52;82.75
71424;BME280;59240;51.370;-0.486;2023-04-29T07:30:36;101977.06;;;13.52;81.80
71424;BME280;59240;51.370;-0.486;2023-04-29T07:33:03;101999.38;;;13.76;80.98
71424;BME280;59240;51.370;-0.486;2023-04-29T07:35:29;102000.94;;;13.88;79.80
71424;BME280;59240;51.370;-0.486;2023-04-29T07:37:56;102000.84;;;13.94;79.65
71424;BME280;59240;51.370;-0.486;2023-04-29T07:40:23;102003.25;;;14.08;79.00
71424;BME280;59240;51.370;-0.486;2023-04-29T07:42:49;102010.13;;;14.13;78.66
71424;BME280;59240;51.370;-0.486;2023-04-29T07:45:16;102004.00;;;14.14;78.93
71424;BME280;59240;51.370;-0.486;2023-04-29T07:47:43;102004.69;;;14.24;78.24
71424;BME280;59240;51.370;-0.486;2023-04-29T07:50:12;102012.34;;;14.36;78.16
71424;BME280;59240;51.370;-0.486;2023-04-29T07:52:39;101997.41;;;14.40;77.17
71424;BME280;59240;51.370;-0.486;2023-04-29T07:55:06;101996.41;;;14.50;77.43
71424;BME280;59240;51.370;-0.486;2023-04-29T07:57:35;102017.69;;;14.80;76.46
71424;BME280;59240;51.370;-0.486;2023-04-29T08:00:02;102016.53;;;14.93;75.94
71424;BME280;59240;51.370;-0.486;2023-04-29T08:02:29;102014.50;;;15.07;74.83
71424;BME280;59240;51.370;-0.486;2023-04-29T08:04:56;102011.69;;;15.15;74.51
71424;BME280;59240;51.370;-0.486;2023-04-29T08:07:23;102012.44;;;15.21;73.50
71424;BME280;59240;51.370;-0.486;2023-04-29T08:09:50;102014.94;;;15.27;72.91
71424;BME280;59240;51.370;-0.486;2023-04-29T08:12:16;102015.75;;;15.29;73.28
71424;BME280;59240;51.370;-0.486;2023-04-29T08:14:43;102017.34;;;15.37;72.06
71424;BME280;59240;51.370;-0.486;2023-04-29T08:17:09;102012.81;;;15.45;72.41
71424;BME280;59240;51.370;-0.486;2023-04-29T08:19:36;102013.34;;;15.59;72.25
71424;BME280;59240;51.370;-0.486;2023-04-29T08:22:03;102009.56;;;15.72;71.64
71424;BME280;59240;51.370;-0.486;2023-04-29T08:24:29;102010.22;;;15.82;70.94
71424;BME280;59240;51.370;-0.486;2023-04-29T08:26:56;102018.72;;;15.92;71.19
71424;BME280;59240;51.370;-0.486;2023-04-29T08:29:24;102010.63;;;16.01;69.52
71424;BME280;59240;51.370;-0.486;2023-04-29T08:31:51;102001.84;;;16.02;70.30
71424;BME280;59240;51.370;-0.486;2023-04-29T08:34:17;102013.53;;;16.24;69.99
71424;BME280;59240;51.370;-0.486;2023-04-29T08:36:47;101999.47;;;16.25;68.90
71424;BME280;59240;51.370;-0.486;2023-04-29T08:39:13;102020.78;;;16.49;68.63
71424;BME280;59240;51.370;-0.486;2023-04-29T08:41:40;102015.91;;;16.66;68.08
71424;BME280;59240;51.370;-0.486;2023-04-29T08:44:09;102013.28;;;16.66;68.00
71424;BME280;59240;51.370;-0.486;2023-04-29T08:46:36;102023.56;;;16.77;67.71
71424;BME280;59240;51.370;-0.486;2023-04-29T08:49:05;102016.19;;;16.89;66.81
71424;BME280;59240;51.370;-0.486;2023-04-29T08:51:32;102025.34;;;17.06;66.64
71424;BME280;59240;51.370;-0.486;2023-04-29T08:54:00;102028.31;;;17.25;67.26
71424;BME280;59240;51.370;-0.486;2023-04-29T08:56:27;102020.72;;;17.43;66.49
71424;BME280;59240;51.370;-0.486;2023-04-29T08:58:56;102023.69;;;17.61;66.02
71424;BME280;59240;51.370;-0.486;2023-04-29T09:01:27;102031.28;;;17.70;64.25
71424;BME280;59240;51.370;-0.486;2023-04-29T09:04:10;102038.94;;;17.79;64.40
71424;BME280;59240;51.370;-0.486;2023-04-29T09:06:37;102042.91;;;17.92;65.03
71424;BME280;59240;51.370;-0.486;2023-04-29T09:09:05;102038.13;;;18.03;62.18
71424;BME280;59240;51.370;-0.486;2023-04-29T09:11:32;102029.22;;;18.08;63.97
71424;BME280;59240;51.370;-0.486;2023-04-29T09:14:00;102023.75;;;18.14;63.12
71424;BME280;59240;51.370;-0.486;2023-04-29T09:16:27;102047.47;;;18.40;62.38
71424;BME280;59240;51.370;-0.486;2023-04-29T09:18:54;102032.59;;;18.38;61.84
71424;BME280;59240;51.370;-0.486;2023-04-29T09:21:24;102022.09;;;18.36;62.04
71424;BME280;59240;51.370;-0.486;2023-04-29T09:23:55;102050.94;;;18.66;61.52
71424;BME280;59240;51.370;-0.486;2023-04-29T09:26:22;102058.25;;;18.84;61.00
71424;BME280;59240;51.370;-0.486;2023-04-29T09:29:09;102062.88;;;19.02;60.68
71424;BME280;59240;51.370;-0.486;2023-04-29T09:31:37;102066.44;;;19.25;60.40
71424;BME280;59240;51.370;-0.486;2023-04-29T09:34:04;102063.41;;;19.35;58.60
71424;BME280;59240;51.370;-0.486;2023-04-29T09:36:35;102064.13;;;19.39;57.12
71424;BME280;59240;51.370;-0.486;2023-04-29T09:39:19;102051.84;;;19.38;55.81
71424;BME280;59240;51.370;-0.486;2023-04-29T09:44:28;102047.72;;;19.53;58.20
71424;BME280;59240;51.370;-0.486;2023-04-29T09:46:59;102056.25;;;19.83;57.66
71424;BME280;59240;51.370;-0.486;2023-04-29T09:49:32;102059.22;;;19.97;57.37
71424;BME280;59240;51.370;-0.486;2023-04-29T09:52:02;102053.28;;;20.12;55.65
71424;BME280;59240;51.370;-0.486;2023-04-29T09:54:31;102046.59;;;20.24;56.29
71424;BME280;59240;51.370;-0.486;2023-04-29T09:56:59;102038.88;;;20.40;54.55
71424;BME280;59240;51.370;-0.486;2023-04-29T09:59:28;102047.91;;;20.56;54.36
71424;BME280;59240;51.370;-0.486;2023-04-29T10:01:56;102047.38;;;20.68;53.70
71424;BME280;59240;51.370;-0.486;2023-04-29T10:04:25;102051.44;;;20.96;53.42
71424;BME280;59240;51.370;-0.486;2023-04-29T10:06:53;102044.66;;;21.09;52.44
71424;BME280;59240;51.370;-0.486;2023-04-29T10:09:22;102041.28;;;21.24;52.41
71424;BME280;59240;51.370;-0.486;2023-04-29T10:11:50;102045.78;;;21.43;51.31
71424;BME280;59240;51.370;-0.486;2023-04-29T10:14:18;102053.00;;;21.58;50.96
71424;BME280;59240;51.370;-0.486;2023-04-29T10:16:58;102057.22;;;21.62;49.29
71424;BME280;59240;51.370;-0.486;2023-04-29T10:19:32;102055.28;;;21.66;47.42
71424;BME280;59240;51.370;-0.486;2023-04-29T10:22:06;102059.91;;;21.79;47.34
71424;BME280;59240;51.370;-0.486;2023-04-29T10:24:36;102057.91;;;21.84;48.71
71424;BME280;59240;51.370;-0.486;2023-04-29T10:27:06;102056.38;;;21.98;45.00
71424;BME280;59240;51.370;-0.486;2023-04-29T10:29:33;102058.09;;;22.16;47.31
71424;BME280;59240;51.370;-0.486;2023-04-29T10:32:03;102052.50;;;22.22;46.81
71424;BME280;59240;51.370;-0.486;2023-04-29T10:34:30;102053.75;;;22.32;48.21
71424;BME280;59240;51.370;-0.486;2023-04-29T10:36:58;102056.06;;;22.56;47.86
71424;BME280;59240;51.370;-0.486;2023-04-29T10:39:31;102043.97;;;22.67;46.71
71424;BME280;59240;51.370;-0.486;2023-04-29T10:42:01;102057.28;;;23.01;46.87
71424;BME280;59240;51.370;-0.486;2023-04-29T10:44:31;102048.91;;;23.24;46.09
71424;BME280;59240;51.370;-0.486;2023-04-29T10:47:19;102052.50;;;23.39;44.45
71424;BME280;59240;51.370;-0.486;2023-04-29T10:50:03;102045.06;;;23.45;39.74
71424;BME280;59240;51.370;-0.486;2023-04-29T10:52:29;102047.56;;;23.48;44.10
71424;BME280;59240;51.370;-0.486;2023-04-29T10:55:02;102036.56;;;23.55;42.77
71424;BME280;59240;51.370;-0.486;2023-04-29T10:57:29;102039.91;;;23.74;43.25
71424;BME280;59240;51.370;-0.486;2023-04-29T10:59:56;102040.91;;;23.87;42.52
71424;BME280;59240;51.370;-0.486;2023-04-29T11:02:22;102041.00;;;23.86;41.81
71424;BME280;59240;51.370;-0.486;2023-04-29T11:05:08;102031.78;;;23.77;40.16
71424;BME280;59240;51.370;-0.486;2023-04-29T11:07:35;102033.13;;;23.84;42.22
71424;BME280;59240;51.370;-0.486;2023-04-29T11:10:02;102034.41;;;23.93;41.65
71424;BME280;59240;51.370;-0.486;2023-04-29T11:12:29;102043.22;;;23.93;41.12
71424;BME280;59240;51.370;-0.486;2023-04-29T11:14:57;102035.84;;;23.98;40.07
71424;BME280;59240;51.370;-0.486;2023-04-29T11:17:36;102033.59;;;24.07;41.06
71424;BME280;59240;51.370;-0.486;2023-04-29T11:20:10;102034.72;;;24.02;39.65
71424;BME280;59240;51.370;-0.486;2023-04-29T11:22:41;102024.47;;;24.11;40.92
71424;BME280;59240;51.370;-0.486;2023-04-29T11:25:16;102015.72;;;24.09;40.01
71424;BME280;59240;51.370;-0.486;2023-04-29T11:27:44;102023.91;;;24.20;40.17
71424;BME280;59240;51.370;-0.486;2023-04-29T11:30:12;102014.97;;;24.21;40.06
71424;BME280;59240;51.370;-0.486;2023-04-29T11:32:40;102026.69;;;24.18;38.53
71424;BME280;59240;51.370;-0.486;2023-04-29T11:35:17;102027.75;;;24.16;39.27
71424;BME280;59240;51.370;-0.486;2023-04-29T11:37:45;102029.84;;;24.25;40.07
71424;BME280;59240;51.370;-0.486;2023-04-29T11:40:13;102025.69;;;24.35;40.06
71424;BME280;59240;51.370;-0.486;2023-04-29T11:42:41;102022.50;;;24.44;39.25
71424;BME280;59240;51.370;-0.486;2023-04-29T11:45:11;102022.72;;;24.25;36.26
71424;BME280;59240;51.370;-0.486;2023-04-29T11:47:42;102020.38;;;24.05;37.91
71424;BME280;59240;51.370;-0.486;2023-04-29T11:50:09;102015.16;;;24.04;39.03
71424;BME280;59240;51.370;-0.486;2023-04-29T11:52:37;102029.25;;;24.20;39.10
71424;BME280;59240;51.370;-0.486;2023-04-29T11:55:07;102012.63;;;24.16;37.76
71424;BME280;59240;51.370;-0.486;2023-04-29T11:57:34;101992.91;;;24.05;39.06
71424;BME280;59240;51.370;-0.486;2023-04-29T12:00:01;102012.72;;;24.29;39.65
71424;BME280;59240;51.370;-0.486;2023-04-29T12:02:33;102008.06;;;24.33;37.91
71424;BME280;59240;51.370;-0.486;2023-04-29T12:05:05;101989.28;;;24.06;35.33
71424;BME280;59240;51.370;-0.486;2023-04-29T12:07:32;102009.94;;;24.16;38.46
71424;BME280;59240;51.370;-0.486;2023-04-29T12:09:59;102006.25;;;24.19;37.65
71424;BME280;59240;51.370;-0.486;2023-04-29T12:12:26;101997.50;;;24.17;37.52
71424;BME280;59240;51.370;-0.486;2023-04-29T12:14:53;101994.84;;;24.17;38.07
71424;BME280;59240;51.370;-0.486;2023-04-29T12:17:21;101998.16;;;24.20;37.94
71424;BME280;59240;51.370;-0.486;2023-04-29T12:19:50;101989.03;;;24.24;37.80
71424;BME280;59240;51.370;-0.486;2023-04-29T12:22:18;101991.81;;;24.23;38.02
71424;BME280;59240;51.370;-0.486;2023-04-29T12:24:45;101993.03;;;24.17;37.12
71424;BME280;59240;51.370;-0.486;2023-04-29T12:27:12;101989.63;;;23.99;36.66
71424;BME280;59240;51.370;-0.486;2023-04-29T12:29:38;102003.25;;;23.79;38.52
71424;BME280;59240;51.370;-0.486;2023-04-29T12:32:12;101994.16;;;23.83;38.74
71424;BME280;59240;51.370;-0.486;2023-04-29T12:34:41;102002.28;;;23.96;38.42
71424;BME280;59240;51.370;-0.486;2023-04-29T12:37:11;101989.63;;;23.99;38.08
71424;BME280;59240;51.370;-0.486;2023-04-29T12:39:38;101986.97;;;23.99;38.13
71424;BME280;59240;51.370;-0.486;2023-04-29T12:42:05;101978.69;;;23.90;38.49
71424;BME280;59240;51.370;-0.486;2023-04-29T12:44:35;101979.84;;;24.00;38.24
71424;BME280;59240;51.370;-0.486;2023-04-29T12:47:09;101988.91;;;24.12;37.72
71424;BME280;59240;51.370;-0.486;2023-04-29T12:49:36;101991.31;;;24.16;37.92
71424;BME280;59240;51.370;-0.486;2023-04-29T12:52:04;101987.00;;;24.14;37.08
71424;BME280;59240;51.370;-0.486;2023-04-29T12:54:31;101978.63;;;24.06;37.29
71424;BME280;59240;51.370;-0.486;2023-04-29T12:56:58;101973.66;;;23.99;37.06
71424;BME280;59240;51.370;-0.486;2023-04-29T12:59:27;101978.13;;;23.99;36.74
71424;BME280;59240;51.370;-0.486;2023-04-29T13:01:53;101982.25;;;24.05;37.96
71424;BME280;59240;51.370;-0.486;2023-04-29T13:04:20;101956.94;;;23.97;37.75